Time;durP1;ratioP1;P1;durP2;ratioP2;P2;SDS_P1;SDS_P2;PMS_P1;PMS_P2;Temp;Humidity;BMP_temperature;BMP_pressure;BME280_temperature;BME280_humidity;BME280_pressure;Samples;Min_cycle;Max_cycle;Signal;HPM_P1;HPM_P2
2021/05/01 19:12:57;;;;;;;;;;;;;;;18.63;42.30;99078.06;1659182;86;20264;-71
2021/05/01 19:15:26;;;;;;;;;;;;;;;13.19;100.00;99057.10;1658501;84;37559;-71
2021/05/01 19:17:57;;;;;;;;;;;;;;;13.21;100.00;99067.61;1657786;86;20632;-71
2021/05/01 19:20:25;;;;;;;;;;;;;;;13.19;100.00;99077.86;1657955;86;21208;-73
2021/05/01 19:22:59;;;;;;;;;;;;;;;13.15;100.00;99094.32;1657751;86;20536;-72
2021/05/01 19:25:28;;;;;;;;;;;;;;;13.01;100.00;99094.97;1657966;86;20529;-72
2021/05/01 19:27:56;;;;;;;;;;;;;;;12.83;100.00;99092.38;1657894;86;20256;-72
2021/05/01 19:30:24;;;;;;;;;;;;;;;12.71;100.00;99109.98;1663614;84;20255;-74
2021/05/01 19:32:53;;;;;;;;;;;;;;;12.59;100.00;99116.52;1692220;84;22099;-73
2021/05/01 19:35:24;;;;;;;;;;;;;;;12.53;100.00;99116.27;1692242;82;20139;-74
2021/05/01 19:37:54;;;;;;;;;;;;;;;12.46;100.00;99117.66;1692614;82;20231;-72
2021/05/01 19:40:47;;;;;;;;;;;;;;;12.41;100.00;99113.09;1696545;84;20236;-74
2021/05/01 19:43:15;;;;;;;;;;;;;;;12.39;100.00;99116.59;1659703;83;20546;-73
2021/05/01 19:45:42;;;;;;;;;;;;;;;12.37;100.00;99112.86;1651108;86;21357;-73
2021/05/01 19:48:10;;;;;;;;;;;;;;;12.40;100.00;99114.19;1695929;84;20249;-73
2021/05/01 19:50:38;;;;;;;;;;;;;;;12.38;100.00;99102.89;1678572;84;20243;-72
2021/05/01 19:53:12;;;;;;;;;;;;;;;12.39;100.00;99099.11;1679309;84;20270;-72
2021/05/01 19:55:49;;;;;;;;;;;;;;;12.40;100.00;99092.11;1677937;85;20246;-73
2021/05/01 19:58:26;;;;;;;;;;;;;;;12.44;100.00;99097.73;1678104;85;21375;-72
2021/05/01 20:00:58;;;;;;;;;;;;;;;12.44;100.00;99097.22;1678011;85;20541;-74
2021/05/01 20:03:26;;;;;;;;;;;;;;;12.41;100.00;99092.36;1679171;84;20245;-72
2021/05/01 20:05:55;;;;;;;;;;;;;;;12.36;100.00;99073.55;1678138;85;20459;-72
2021/05/01 20:08:24;;;;;;;;;;;;;;;12.34;100.00;99058.77;1678085;82;20253;-73
2021/05/01 20:10:54;;;;;;;;;;;;;;;12.27;100.00;99045.61;1677651;84;22142;-72
2021/05/01 20:13:25;;;;;;;;;;;;;;;12.21;100.00;99030.59;1678232;85;20265;-72
2021/05/01 20:15:54;;;;;;;;;;;;;;;12.16;100.00;99023.34;1678253;84;20254;-72
2021/05/01 20:18:22;;;;;;;;;;;;;;;12.15;100.00;99016.88;1696821;84;21131;-71
2021/05/01 20:20:49;;;;;;;;;;;;;;;12.14;100.00;99011.25;1698929;84;20248;-71
2021/05/01 20:23:18;;;;;;;;;;;;;;;12.11;100.00;99009.92;1749348;82;21369;-71
2021/05/01 20:25:48;;;;;;;;;;;;;;;12.10;100.00;98998.91;1715600;83;20164;-72
2021/05/01 20:28:15;;;;;;;;;;;;;;;12.05;100.00;98997.56;1727753;82;20163;-72
2021/05/01 20:30:43;;;;;;;;;;;;;;;12.03;100.00;98986.30;1742398;81;20240;-72
2021/05/01 20:33:11;;;;;;;;;;;;;;;12.01;100.00;98979.04;1746784;82;20556;-72
2021/05/01 20:35:40;;;;;;;;;;;;;;;11.97;100.00;98976.09;1746374;82;21228;-73
2021/05/01 20:38:08;;;;;;;;;;;;;;;11.92;100.00;98972.08;1746268;82;20225;-75
2021/05/01 20:40:37;;;;;;;;;;;;;;;11.86;100.00;98974.52;1746306;82;20590;-73
2021/05/01 20:43:06;;;;;;;;;;;;;;;11.78;100.00;98973.20;1746468;82;20220;-71
2021/05/01 20:45:35;;;;;;;;;;;;;;;11.72;100.00;98970.80;1745094;82;20284;-72
2021/05/01 20:48:04;;;;;;;;;;;;;;;11.67;100.00;98977.00;1713546;82;22102;-72
2021/05/01 20:50:32;;;;;;;;;;;;;;;11.61;100.00;98976.74;1736285;82;20292;-70
2021/05/01 20:53:01;;;;;;;;;;;;;;;11.59;100.00;98980.27;1736556;82;20492;-70
2021/05/01 20:55:34;;;;;;;;;;;;;;;11.56;100.00;98975.42;1736391;81;20245;-71
2021/05/01 20:58:03;;;;;;;;;;;;;;;11.55;100.00;98970.59;1736353;81;20265;-71
2021/05/01 21:00:33;;;;;;;;;;;;;;;11.53;100.00;98957.16;1734867;82;21266;-70
2021/05/01 21:03:01;;;;;;;;;;;;;;;11.53;100.00;98943.17;1732948;82;20341;-72
2021/05/01 21:05:29;;;;;;;;;;;;;;;11.51;100.00;98941.33;1735720;82;20308;-71
2021/05/01 21:07:59;;;;;;;;;;;;;;;11.50;100.00;98942.39;1734420;81;20233;-72
2021/05/01 21:10:37;;;;;;;;;;;;;;;11.50;100.00;98946.97;1734484;81;20150;-72
2021/05/01 21:13:04;;;;;;;;;;;;;;;11.48;100.00;98946.44;1733397;82;21196;-74
2021/05/01 21:15:32;;;;;;;;;;;;;;;11.46;100.00;98941.86;1734614;82;20291;-71
2021/05/01 21:18:00;;;;;;;;;;;;;;;11.46;100.00;98940.52;1735863;82;20242;-71
2021/05/01 21:20:29;;;;;;;;;;;;;;;11.45;100.00;98941.06;1734621;82;20246;-71
2021/05/01 21:22:59;;;;;;;;;;;;;;;11.47;100.00;98954.24;1732709;82;20293;-70
2021/05/01 21:25:27;;;;;;;;;;;;;;;11.45;100.00;98948.33;1735058;82;21629;-71
2021/05/01 21:27:56;;;;;;;;;;;;;;;11.45;100.00;98959.08;1735324;82;20225;-72
2021/05/01 21:30:26;;;;;;;;;;;;;;;11.44;100.00;98953.42;1732940;82;20241;-71
2021/05/01 21:32:58;;;;;;;;;;;;;;;11.40;100.00;98954.52;1736083;82;20230;-72
2021/05/01 21:35:27;;;;;;;;;;;;;;;11.37;100.00;98953.73;1736130;82;20142;-71
2021/05/01 21:38:01;;;;;;;;;;;;;;;11.33;100.00;98950.77;1737056;81;20750;-70
2021/05/01 21:40:29;;;;;;;;;;;;;;;11.28;100.00;98950.79;1736265;82;20238;-70
2021/05/01 21:42:56;;;;;;;;;;;;;;;11.24;100.00;98947.03;1736466;82;20114;-71
2021/05/01 21:45:24;;;;;;;;;;;;;;;11.23;100.00;98950.80;1736435;82;20241;-70
2021/05/01 21:47:53;;;;;;;;;;;;;;;11.22;100.00;98956.44;1736421;82;20304;-70
2021/05/01 21:50:21;;;;;;;;;;;;;;;11.19;100.00;98966.39;1736451;82;21857;-72
2021/05/01 21:52:52;;;;;;;;;;;;;;;11.19;100.00;98963.70;1736415;82;20142;-71
2021/05/01 21:55:20;;;;;;;;;;;;;;;11.17;100.00;98961.31;1736398;82;20134;-71
2021/05/01 21:57:47;;;;;;;;;;;;;;;11.16;100.00;98964.52;1736387;82;20158;-72
2021/05/01 22:00:48;;;;;;;;;;;;;;;11.15;100.00;98964.80;1736487;82;20250;-72
2021/05/01 22:03:19;;;;;;;;;;;;;;;11.15;100.00;98970.17;1736415;82;21361;-70
2021/05/01 22:05:48;;;;;;;;;;;;;;;11.14;100.00;98967.20;1736616;81;20154;-71
2021/05/01 22:08:20;;;;;;;;;;;;;;;11.13;100.00;98965.06;1736386;82;20138;-70
2021/05/01 22:10:49;;;;;;;;;;;;;;;11.13;100.00;98965.61;1736442;82;20732;-70
2021/05/01 22:13:23;;;;;;;;;;;;;;;11.13;100.00;98961.58;1734702;82;20210;-71
2021/05/01 22:15:53;;;;;;;;;;;;;;;11.11;100.00;98955.66;1734079;82;21430;-70
2021/05/01 22:18:26;;;;;;;;;;;;;;;11.12;100.00;98947.86;1733968;81;20162;-70
2021/05/01 22:21:10;;;;;;;;;;;;;;;11.13;100.00;98943.58;1734057;82;20488;-70
2021/05/01 22:26:18;;;;;;;;;;;;;;;11.13;100.00;98935.52;1734092;82;20234;-71
2021/05/01 22:28:46;;;;;;;;;;;;;;;11.13;100.00;98938.20;1734065;82;21192;-71
2021/05/01 22:31:14;;;;;;;;;;;;;;;11.13;100.00;98926.66;1734065;81;20644;-72
2021/05/01 22:33:43;;;;;;;;;;;;;;;11.15;100.00;98928.54;1734090;82;20134;-68
2021/05/01 22:36:10;;;;;;;;;;;;;;;11.15;100.00;98925.86;1735794;81;20501;-71
2021/05/01 22:38:40;;;;;;;;;;;;;;;11.13;100.00;98916.72;1734175;82;20580;-71
2021/05/01 22:41:09;;;;;;;;;;;;;;;11.12;100.00;98915.63;1734025;82;22063;-72
2021/05/01 22:43:49;;;;;;;;;;;;;;;11.11;100.00;98908.66;1733882;82;20194;-71
2021/05/01 22:46:20;;;;;;;;;;;;;;;11.11;100.00;98903.30;1734130;82;20142;-71
2021/05/01 22:48:50;;;;;;;;;;;;;;;11.09;100.00;98901.41;1734014;82;20259;-71
2021/05/01 22:51:17;;;;;;;;;;;;;;;11.12;100.00;98903.55;1734105;82;20233;-72
2021/05/01 22:53:45;;;;;;;;;;;;;;;11.09;100.00;98894.70;1733954;82;21656;-72
2021/05/01 22:56:15;;;;;;;;;;;;;;;11.05;100.00;98893.11;1733985;82;20143;-71
2021/05/01 22:58:42;;;;;;;;;;;;;;;11.05;100.00;98893.11;1734001;82;20269;-71
2021/05/01 23:01:12;;;;;;;;;;;;;;;11.02;100.00;98888.81;1734012;82;20242;-72
2021/05/01 23:03:41;;;;;;;;;;;;;;;10.98;100.00;98881.05;1734043;81;20491;-71
2021/05/01 23:06:09;;;;;;;;;;;;;;;10.96;100.00;98881.86;1734679;81;22276;-71
2021/05/01 23:08:39;;;;;;;;;;;;;;;10.91;100.00;98871.39;1733943;81;20143;-70
2021/05/01 23:11:10;;;;;;;;;;;;;;;10.87;100.00;98868.97;1734022;82;20233;-71
2021/05/01 23:13:38;;;;;;;;;;;;;;;10.85;100.00;98866.30;1733876;82;20142;-72
2021/05/01 23:16:06;;;;;;;;;;;;;;;10.82;100.00;98856.11;1734110;81;20143;-71
2021/05/01 23:18:35;;;;;;;;;;;;;;;10.77;100.00;98860.94;1734063;82;20667;-73
2021/05/01 23:21:06;;;;;;;;;;;;;;;10.75;100.00;98858.27;1733957;82;20209;-72
2021/05/01 23:23:35;;;;;;;;;;;;;;;10.70;100.00;98856.39;1734056;81;20229;-73
2021/05/01 23:26:05;;;;;;;;;;;;;;;10.68;100.00;98851.83;1734009;82;20138;-72
2021/05/01 23:28:37;;;;;;;;;;;;;;;10.64;100.00;98846.76;1733994;82;20154;-72
2021/05/01 23:31:05;;;;;;;;;;;;;;;10.60;100.00;98846.48;1734022;82;22207;-72
2021/05/01 23:33:39;;;;;;;;;;;;;;;10.59;100.00;98844.88;1733992;82;20146;-72
2021/05/01 23:36:09;;;;;;;;;;;;;;;10.58;100.00;98837.89;1734068;82;20217;-72
2021/05/01 23:38:37;;;;;;;;;;;;;;;10.57;100.00;98836.84;1734106;82;20166;-71
2021/05/01 23:41:06;;;;;;;;;;;;;;;10.54;100.00;98827.45;1734317;81;20481;-71
2021/05/01 23:43:36;;;;;;;;;;;;;;;10.53;100.00;98821.80;1734130;82;21427;-71
2021/05/01 23:46:09;;;;;;;;;;;;;;;10.52;100.00;98817.52;1734094;82;20560;-71
2021/05/01 23:48:51;;;;;;;;;;;;;;;10.53;100.00;98814.30;1734176;81;20166;-71
2021/05/01 23:51:19;;;;;;;;;;;;;;;10.51;100.00;98809.22;1734266;82;20986;-72
2021/05/01 23:53:48;;;;;;;;;;;;;;;10.51;100.00;98807.34;1734223;82;20246;-71
2021/05/01 23:56:16;;;;;;;;;;;;;;;10.49;100.00;98800.62;1734204;81;20817;-71
2021/05/01 23:58:45;;;;;;;;;;;;;;;10.47;100.00;98800.89;1734036;82;20130;-71
